createdAt,value
2022-11-14T00:01:27.215Z,5.76
2022-11-14T00:03:55.249Z,5.77
2022-11-14T00:06:23.880Z,5.84
2022-11-14T00:08:51.915Z,5.86
2022-11-14T00:11:21.349Z,5.80
2022-11-14T00:13:49.395Z,5.70
2022-11-14T00:16:18.298Z,5.59
2022-11-14T00:18:46.329Z,5.47
2022-11-14T00:21:14.302Z,5.40
2022-11-14T00:23:42.367Z,5.35
2022-11-14T00:26:10.495Z,5.32
2022-11-14T00:28:39.970Z,5.30
2022-11-14T00:31:08.272Z,5.35
2022-11-14T00:33:36.282Z,5.31
2022-11-14T00:36:05.313Z,5.29
2022-11-14T00:38:33.297Z,5.37
2022-11-14T00:41:01.311Z,5.32
2022-11-14T00:43:29.315Z,5.31
2022-11-14T00:45:58.789Z,5.32
2022-11-14T00:48:27.034Z,5.37
2022-11-14T00:50:55.285Z,5.42
2022-11-14T00:53:23.322Z,5.34
2022-11-14T00:55:51.296Z,5.27
2022-11-14T00:58:19.360Z,5.30
2022-11-14T01:00:47.543Z,5.24
2022-11-14T01:03:17.145Z,5.24
2022-11-14T01:05:46.567Z,5.15
2022-11-14T01:08:15.659Z,5.24
2022-11-14T01:10:45.244Z,5.26
2022-11-14T01:13:14.211Z,5.23
2022-11-14T01:15:42.840Z,5.21
2022-11-14T01:18:12.206Z,5.09
2022-11-14T01:20:42.123Z,4.98
2022-11-14T01:23:11.408Z,4.85
2022-11-14T01:25:41.085Z,4.79
2022-11-14T01:28:10.275Z,4.80
2022-11-14T01:30:38.968Z,4.78
2022-11-14T01:33:07.515Z,4.75
2022-11-14T01:35:37.082Z,4.70
2022-11-14T01:38:07.604Z,4.64
2022-11-14T01:40:35.727Z,4.67
2022-11-14T01:43:27.036Z,4.66
2022-11-14T01:45:58.367Z,4.64
2022-11-14T01:48:32.740Z,4.63
2022-11-14T01:51:04.672Z,4.72
2022-11-14T01:53:34.167Z,4.83
2022-11-14T01:56:05.627Z,4.74
2022-11-14T01:58:38.305Z,4.64
2022-11-14T02:01:06.615Z,4.58
2022-11-14T02:03:38.578Z,4.51
2022-11-14T02:06:09.245Z,4.61
2022-11-14T02:08:39.428Z,4.62
2022-11-14T02:11:07.415Z,4.70
2022-11-14T02:13:35.488Z,4.82
2022-11-14T02:16:03.671Z,4.73
2022-11-14T02:18:31.941Z,4.65
2022-11-14T02:21:01.595Z,4.73
2022-11-14T02:23:31.765Z,4.75
2022-11-14T02:25:59.984Z,4.62
2022-11-14T02:28:28.990Z,4.67
2022-11-14T02:30:57.424Z,4.73
2022-11-14T02:33:25.424Z,4.84
2022-11-14T02:35:53.480Z,4.85
2022-11-14T02:38:22.869Z,4.74
2022-11-14T02:40:50.840Z,4.68
2022-11-14T02:43:18.863Z,4.67
2022-11-14T02:45:46.948Z,4.70
2022-11-14T02:48:15.235Z,4.65
2022-11-14T02:50:43.260Z,4.55
2022-11-14T02:53:11.368Z,4.45
2022-11-14T02:55:40.749Z,4.42
2022-11-14T02:58:08.807Z,4.56
2022-11-14T03:00:47.985Z,4.69
2022-11-14T03:03:24.909Z,4.64
2022-11-14T03:05:53.540Z,4.66
2022-11-14T03:08:21.737Z,4.64
2022-11-14T03:10:51.092Z,4.45
2022-11-14T03:13:19.203Z,4.48
2022-11-14T03:15:47.396Z,4.56
2022-11-14T03:18:15.556Z,4.61
2022-11-14T03:20:45.007Z,4.53
2022-11-14T03:23:13.189Z,4.33
2022-11-14T03:25:41.242Z,4.33
2022-11-14T03:28:10.671Z,4.33
2022-11-14T03:30:38.710Z,4.20
2022-11-14T03:33:06.781Z,4.15
2022-11-14T03:35:34.809Z,4.14
2022-11-14T03:38:02.774Z,4.14
2022-11-14T03:40:30.816Z,4.11
2022-11-14T03:42:58.845Z,4.08
2022-11-14T03:45:28.226Z,4.06
2022-11-14T03:47:56.262Z,4.01
2022-11-14T03:50:24.236Z,4.05
2022-11-14T03:52:52.497Z,4.19
2022-11-14T03:55:20.590Z,4.31
2022-11-14T03:57:48.711Z,4.26
2022-11-14T04:00:17.275Z,4.15
2022-11-14T04:02:47.674Z,4.12
2022-11-14T04:05:16.085Z,4.09
2022-11-14T04:07:44.296Z,4.08
2022-11-14T04:10:12.467Z,4.00
2022-11-14T04:12:40.637Z,3.95
2022-11-14T04:15:09.512Z,3.91
2022-11-14T04:17:39.966Z,3.96
2022-11-14T04:20:10.938Z,3.93
2022-11-14T04:22:39.250Z,3.91
2022-11-14T04:25:08.772Z,3.87
2022-11-14T04:27:37.354Z,3.91
2022-11-14T04:30:06.443Z,3.95
2022-11-14T04:32:34.647Z,3.91
2022-11-14T04:35:02.647Z,3.88
2022-11-14T04:37:32.115Z,3.96
2022-11-14T04:40:02.566Z,3.93
2022-11-14T04:42:30.584Z,3.90
2022-11-14T04:44:58.647Z,3.92
2022-11-14T04:47:26.647Z,3.85
2022-11-14T04:49:54.674Z,3.80
2022-11-14T04:52:22.624Z,3.78
2022-11-14T04:54:52.000Z,3.82
2022-11-14T04:57:20.102Z,3.79
2022-11-14T04:59:48.341Z,3.78
2022-11-14T05:02:16.319Z,3.77
2022-11-14T05:04:44.558Z,3.77
2022-11-14T05:07:12.915Z,3.77
2022-11-14T05:09:40.896Z,3.78
2022-11-14T05:12:10.324Z,3.78
2022-11-14T05:14:38.372Z,3.76
2022-11-14T05:17:06.489Z,3.90
2022-11-14T05:19:34.620Z,3.89
2022-11-14T05:22:02.760Z,3.95
2022-11-14T05:24:30.933Z,3.94
2022-11-14T05:27:00.267Z,3.93
2022-11-14T05:29:29.797Z,4.02
2022-11-14T05:31:58.961Z,3.97
2022-11-14T05:34:27.042Z,4.03
2022-11-14T05:36:55.118Z,4.11
2022-11-14T05:39:23.143Z,4.06
2022-11-14T05:41:51.159Z,4.06
2022-11-14T05:44:19.260Z,4.10
2022-11-14T05:46:48.653Z,4.12
2022-11-14T05:49:20.755Z,4.16
2022-11-14T05:51:50.108Z,4.18
2022-11-14T05:54:18.180Z,4.30
2022-11-14T05:56:46.232Z,4.28
2022-11-14T05:59:14.246Z,4.27
2022-11-14T06:01:42.712Z,4.26
2022-11-14T06:04:14.810Z,4.30
2022-11-14T06:06:42.935Z,4.36
2022-11-14T06:09:11.112Z,4.50
2022-11-14T06:11:39.366Z,4.59
2022-11-14T06:14:10.869Z,4.85
2022-11-14T06:16:39.504Z,4.86
2022-11-14T06:19:07.562Z,4.96
2022-11-14T06:21:36.996Z,4.98
2022-11-14T06:24:05.509Z,4.98
2022-11-14T06:26:33.642Z,4.90
2022-11-14T06:29:01.782Z,5.03
2022-11-14T06:31:30.103Z,5.13
2022-11-14T06:33:58.234Z,5.16
2022-11-14T06:36:26.393Z,5.06
2022-11-14T06:38:55.887Z,5.16
2022-11-14T06:41:24.500Z,5.25
2022-11-14T06:43:54.876Z,5.26
2022-11-14T06:46:24.270Z,5.27
2022-11-14T06:48:52.665Z,5.31
2022-11-14T06:51:20.922Z,5.26
2022-11-14T06:53:49.110Z,5.19
2022-11-14T06:56:20.278Z,5.25
2022-11-14T06:58:50.225Z,5.31
2022-11-14T07:01:19.622Z,5.21
2022-11-14T07:03:48.359Z,5.27
2022-11-14T07:06:18.967Z,5.31
2022-11-14T07:08:47.318Z,5.35
2022-11-14T07:11:23.118Z,5.41
2022-11-14T07:13:53.227Z,5.37
2022-11-14T07:16:24.748Z,5.40
2022-11-14T07:18:52.789Z,5.37
2022-11-14T07:21:20.860Z,5.43
2022-11-14T07:23:49.359Z,5.49
2022-11-14T07:26:17.459Z,5.53
2022-11-14T07:28:52.233Z,5.62
2022-11-14T07:31:22.716Z,5.74
2022-11-14T07:33:50.812Z,5.81
2022-11-14T07:36:20.217Z,5.91
2022-11-14T07:38:49.126Z,5.97
2022-11-14T07:41:18.758Z,5.95
2022-11-14T07:43:47.178Z,6.05
2022-11-14T07:46:17.238Z,6.02
2022-11-14T07:48:47.237Z,6.05
2022-11-14T07:51:17.542Z,6.19
2022-11-14T07:53:45.770Z,6.39
2022-11-14T07:56:14.197Z,6.38
2022-11-14T07:58:43.742Z,6.42
2022-11-14T08:01:14.175Z,6.49
2022-11-14T08:03:45.925Z,6.58
2022-11-14T08:06:17.338Z,6.68
2022-11-14T08:08:45.462Z,6.76
2022-11-14T08:11:15.137Z,6.75
2022-11-14T08:13:51.324Z,6.69
2022-11-14T08:16:19.355Z,6.80
2022-11-14T08:18:47.689Z,7.08
2022-11-14T08:21:17.261Z,7.15
2022-11-14T08:23:45.910Z,7.20
2022-11-14T08:26:13.931Z,7.32
2022-11-14T08:28:42.297Z,7.41
2022-11-14T08:31:10.942Z,7.47
2022-11-14T08:33:39.101Z,7.56
2022-11-14T08:36:08.865Z,7.60
2022-11-14T08:38:38.883Z,7.87
2022-11-14T08:41:07.297Z,7.87
2022-11-14T08:43:35.527Z,7.96
2022-11-14T08:46:06.221Z,8.01
2022-11-14T08:48:34.949Z,8.11
2022-11-14T08:51:08.176Z,8.17
2022-11-14T08:53:36.659Z,8.22
2022-11-14T08:56:07.043Z,8.31
2022-11-14T08:58:35.587Z,8.36
2022-11-14T09:01:04.991Z,8.49
2022-11-14T09:03:33.596Z,8.55
2022-11-14T09:06:02.551Z,8.63
2022-11-14T09:08:31.831Z,8.67
2022-11-14T09:11:05.169Z,8.77
2022-11-14T09:13:38.553Z,8.86
2022-11-14T09:16:07.379Z,9.05
2022-11-14T09:18:35.714Z,9.11
2022-11-14T09:21:05.488Z,9.09
2022-11-14T09:23:33.856Z,9.18
2022-11-14T09:26:05.555Z,9.23
2022-11-14T09:28:35.347Z,9.33
2022-11-14T09:31:04.290Z,9.37
2022-11-14T09:33:32.797Z,9.46
2022-11-14T09:36:01.893Z,9.54
2022-11-14T09:38:35.410Z,9.70
2022-11-14T09:41:24.287Z,9.76
2022-11-14T09:44:21.000Z,9.84
2022-11-14T09:46:54.144Z,10.04
2022-11-14T09:49:31.896Z,10.08
2022-11-14T09:52:06.266Z,10.07
2022-11-14T09:54:46.011Z,10.16
2022-11-14T09:57:19.393Z,10.27
2022-11-14T09:59:50.328Z,10.17
2022-11-14T10:02:32.734Z,10.17
2022-11-14T10:05:14.751Z,10.31
2022-11-14T10:07:54.920Z,10.40
2022-11-14T10:10:38.714Z,10.46
2022-11-14T10:13:18.823Z,10.55
2022-11-14T10:15:56.197Z,10.71
2022-11-14T10:18:40.959Z,10.74
2022-11-14T10:21:29.665Z,10.80
2022-11-14T10:24:05.556Z,10.85
2022-11-14T10:26:39.737Z,11.12
2022-11-14T10:29:34.541Z,11.19
2022-11-14T10:32:11.936Z,11.32
2022-11-14T10:34:46.997Z,11.38
2022-11-14T10:37:21.428Z,11.47
2022-11-14T10:39:53.003Z,11.47
2022-11-14T10:42:30.322Z,11.51
2022-11-14T10:45:04.272Z,11.49
2022-11-14T10:47:39.407Z,11.52
2022-11-14T10:50:19.320Z,11.46
2022-11-14T10:52:49.104Z,11.35
2022-11-14T10:55:18.860Z,11.32
2022-11-14T10:57:47.622Z,11.38
2022-11-14T11:00:18.125Z,11.53
2022-11-14T11:02:53.598Z,11.53
2022-11-14T11:05:24.499Z,11.53
2022-11-14T11:08:36.053Z,11.59
2022-11-14T11:11:17.917Z,11.76
2022-11-14T11:13:54.432Z,11.75
2022-11-14T11:16:24.931Z,11.75
2022-11-14T11:18:54.591Z,11.69
2022-11-14T11:21:24.550Z,11.71
2022-11-14T11:23:54.791Z,11.82
2022-11-14T11:26:25.768Z,11.91
2022-11-14T11:29:06.123Z,11.92
2022-11-14T11:31:54.625Z,11.92
2022-11-14T11:34:27.712Z,11.90
2022-11-14T11:37:00.586Z,11.94
2022-11-14T11:39:31.657Z,12.11
2022-11-14T11:42:11.134Z,12.10
2022-11-14T11:44:45.702Z,12.11
2022-11-14T11:47:17.349Z,12.23
2022-11-14T11:49:53.444Z,12.23
2022-11-14T11:52:32.870Z,12.28
2022-11-14T11:55:06.566Z,12.37
2022-11-14T11:57:40.593Z,12.36
2022-11-14T12:00:15.893Z,12.39
2022-11-14T12:02:50.008Z,12.44
2022-11-14T12:05:27.241Z,12.40
2022-11-14T12:08:04.538Z,12.43
2022-11-14T12:10:37.069Z,12.37
2022-11-14T12:13:50.329Z,12.53
2022-11-14T12:16:33.486Z,12.49
2022-11-14T12:19:27.262Z,12.58
2022-11-14T12:22:17.740Z,12.42
2022-11-14T12:25:23.364Z,12.47
2022-11-14T12:28:06.804Z,12.57
2022-11-14T12:30:36.908Z,12.64
2022-11-14T12:33:09.712Z,12.69
2022-11-14T12:35:39.663Z,12.64
2022-11-14T12:38:19.716Z,12.66
2022-11-14T12:40:53.752Z,12.66
2022-11-14T12:43:36.797Z,12.65
2022-11-14T12:46:09.819Z,12.71
2022-11-14T12:48:40.450Z,12.68
2022-11-14T12:51:46.432Z,12.63
2022-11-14T12:54:47.014Z,12.64
2022-11-14T12:57:39.738Z,12.61
2022-11-14T13:00:10.397Z,12.69
2022-11-14T13:03:00.716Z,12.64
2022-11-14T13:05:50.756Z,12.65
2022-11-14T13:08:40.246Z,12.68
2022-11-14T13:12:00.904Z,12.67
2022-11-14T13:14:47.908Z,12.67
2022-11-14T13:17:44.826Z,12.66
2022-11-14T13:20:46.412Z,12.69
2022-11-14T13:23:59.459Z,12.65
2022-11-14T13:26:51.553Z,12.66
2022-11-14T13:30:00.319Z,12.56
2022-11-14T13:33:07.837Z,12.57
2022-11-14T13:36:04.872Z,12.61
2022-11-14T13:39:13.193Z,12.65
2022-11-14T13:42:18.534Z,12.66
2022-11-14T13:45:09.890Z,12.61
2022-11-14T13:48:07.445Z,12.63
2022-11-14T13:50:38.241Z,12.66
2022-11-14T13:53:13.854Z,12.59
2022-11-14T13:55:57.985Z,12.70
2022-11-14T13:58:51.780Z,12.62
2022-11-14T14:01:43.974Z,12.54
2022-11-14T14:04:27.522Z,12.50
2022-11-14T14:07:08.709Z,12.48
2022-11-14T14:09:49.453Z,12.45
2022-11-14T14:12:31.959Z,12.42
2022-11-14T14:15:13.076Z,12.46
2022-11-14T14:17:52.364Z,12.45
2022-11-14T14:20:33.131Z,12.44
2022-11-14T14:23:10.373Z,12.43
2022-11-14T14:25:47.039Z,12.31
2022-11-14T14:28:24.067Z,12.37
2022-11-14T14:31:16.220Z,12.28
2022-11-14T14:33:46.139Z,12.28
2022-11-14T14:36:25.831Z,12.23
2022-11-14T14:39:16.997Z,12.17
2022-11-14T14:41:45.649Z,12.15
2022-11-14T14:44:23.125Z,12.10
2022-11-14T14:46:54.073Z,12.09
2022-11-14T14:49:26.768Z,12.05
2022-11-14T14:51:58.519Z,12.03
2022-11-14T14:54:29.491Z,11.95
2022-11-14T14:57:01.313Z,11.94
2022-11-14T14:59:31.824Z,11.83
2022-11-14T15:02:02.054Z,11.78
2022-11-14T15:04:31.266Z,11.69
2022-11-14T15:06:59.597Z,11.64
2022-11-14T15:09:30.844Z,11.64
2022-11-14T15:12:01.506Z,11.58
2022-11-14T15:14:32.674Z,11.55
2022-11-14T15:17:02.384Z,11.47
2022-11-14T15:19:36.784Z,11.41
2022-11-14T15:22:07.283Z,11.32
2022-11-14T15:24:35.281Z,11.24
2022-11-14T15:27:06.837Z,11.16
2022-11-14T15:29:35.064Z,11.07
2022-11-14T15:32:06.140Z,10.99
2022-11-14T15:34:36.143Z,10.90
2022-11-14T15:37:22.634Z,10.84
2022-11-14T15:39:51.139Z,10.75
2022-11-14T15:42:22.016Z,10.63
2022-11-14T15:44:50.349Z,10.57
2022-11-14T15:47:25.817Z,10.51
2022-11-14T15:50:00.616Z,10.41
2022-11-14T15:52:35.498Z,10.32
2022-11-14T15:55:05.221Z,10.24
2022-11-14T15:57:33.569Z,10.18
2022-11-14T16:00:01.663Z,10.12
2022-11-14T16:02:33.574Z,10.08
2022-11-14T16:05:02.547Z,10.05
2022-11-14T16:07:31.007Z,10.01
2022-11-14T16:09:59.276Z,9.98
2022-11-14T16:12:28.449Z,9.95
2022-11-14T16:14:56.593Z,9.98
2022-11-14T16:17:24.789Z,9.99
2022-11-14T16:19:55.374Z,10.01
2022-11-14T16:22:23.394Z,9.98
2022-11-14T16:24:51.416Z,9.98
2022-11-14T16:27:19.548Z,9.92
2022-11-14T16:29:47.554Z,9.90
2022-11-14T16:32:15.586Z,9.81
2022-11-14T16:34:43.830Z,9.78
2022-11-14T16:37:15.456Z,9.78
2022-11-14T16:39:43.649Z,9.76
2022-11-14T16:42:13.030Z,9.73
2022-11-14T16:44:45.078Z,9.71
2022-11-14T16:47:16.542Z,9.71
2022-11-14T16:49:44.664Z,9.66
2022-11-14T16:52:15.318Z,9.66
2022-11-14T16:54:44.175Z,9.63
2022-11-14T16:57:12.352Z,9.60
2022-11-14T16:59:40.376Z,9.56
2022-11-14T17:02:08.977Z,9.48
2022-11-14T17:04:37.158Z,9.43
2022-11-14T17:07:05.236Z,9.40
2022-11-14T17:09:34.738Z,9.37
2022-11-14T17:12:02.881Z,9.32
2022-11-14T17:14:30.993Z,9.25
2022-11-14T17:17:02.136Z,9.21
2022-11-14T17:19:30.843Z,9.12
2022-11-14T17:21:59.394Z,9.05
2022-11-14T17:24:31.393Z,8.99
2022-11-14T17:27:01.765Z,8.91
2022-11-14T17:29:29.990Z,8.87
2022-11-14T17:31:58.296Z,8.82
2022-11-14T17:34:26.598Z,8.77
2022-11-14T17:36:55.024Z,8.73
2022-11-14T17:39:23.793Z,8.68
2022-11-14T17:41:51.881Z,8.64
2022-11-14T17:44:21.626Z,8.60
2022-11-14T17:46:50.294Z,8.53
2022-11-14T17:49:18.435Z,8.47
2022-11-14T17:51:46.655Z,8.43
2022-11-14T17:54:14.974Z,8.39
2022-11-14T17:56:48.506Z,8.35
2022-11-14T17:59:21.457Z,8.30
2022-11-14T18:01:51.197Z,8.24
2022-11-14T18:04:19.341Z,8.20
2022-11-14T18:06:47.527Z,8.17
2022-11-14T18:09:15.695Z,8.13
2022-11-14T18:11:44.126Z,8.10
2022-11-14T18:14:14.446Z,8.07
2022-11-14T18:17:10.461Z,8.02
2022-11-14T18:19:32.321Z,7.99
2022-11-14T18:22:00.488Z,7.95
2022-11-14T18:24:29.203Z,7.92
2022-11-14T18:26:59.091Z,7.89
2022-11-14T18:29:28.587Z,7.85
2022-11-14T18:31:56.627Z,7.81
2022-11-14T18:34:24.707Z,7.78
2022-11-14T18:36:54.708Z,7.73
2022-11-14T18:39:22.814Z,7.68
2022-11-14T18:41:50.949Z,7.64
2022-11-14T18:44:21.546Z,7.60
2022-11-14T18:46:49.624Z,7.57
2022-11-14T18:49:18.278Z,7.51
2022-11-14T18:51:47.160Z,7.46
2022-11-14T18:54:19.033Z,7.52
2022-11-14T18:56:48.623Z,7.54
2022-11-14T18:59:18.072Z,7.47
2022-11-14T19:01:46.320Z,7.42
2022-11-14T19:04:17.356Z,7.36
2022-11-14T19:06:45.668Z,7.31
2022-11-14T19:09:22.812Z,7.26
2022-11-14T19:12:08.505Z,7.22
2022-11-14T19:14:37.987Z,7.18
2022-11-14T19:17:07.112Z,7.15
2022-11-14T19:19:35.238Z,7.11
2022-11-14T19:22:04.077Z,7.07
2022-11-14T19:24:34.321Z,7.06
2022-11-14T19:27:02.572Z,7.04
2022-11-14T19:29:30.669Z,7.02
2022-11-14T19:31:59.018Z,7.05
2022-11-14T19:34:27.269Z,7.19
2022-11-14T19:37:00.723Z,7.19
2022-11-14T19:39:29.582Z,7.27
2022-11-14T19:41:59.306Z,7.32
2022-11-14T19:44:27.387Z,7.32
2022-11-14T19:46:55.534Z,7.30
2022-11-14T19:49:23.628Z,7.13
2022-11-14T19:51:51.723Z,7.02
2022-11-14T19:54:19.897Z,7.02
2022-11-14T19:56:48.097Z,6.97
2022-11-14T19:59:22.948Z,7.13
2022-11-14T20:01:55.397Z,7.23
2022-11-14T20:04:23.794Z,7.27
2022-11-14T20:06:52.093Z,7.23
2022-11-14T20:09:20.331Z,7.08
2022-11-14T20:11:48.496Z,7.01
2022-11-14T20:14:18.271Z,7.04
2022-11-14T20:16:46.896Z,6.98
2022-11-14T20:19:16.413Z,6.93
2022-11-14T20:21:44.612Z,6.86
2022-11-14T20:24:15.516Z,6.81
2022-11-14T20:26:43.704Z,6.80
2022-11-14T20:29:11.900Z,6.83
2022-11-14T20:31:51.807Z,6.78
2022-11-14T20:34:39.342Z,6.83
2022-11-14T20:37:12.182Z,6.95
2022-11-14T20:39:48.219Z,6.92
2022-11-14T20:42:27.328Z,6.77
2022-11-14T20:45:01.778Z,6.73
2022-11-14T20:47:52.023Z,6.66
2022-11-14T20:50:39.329Z,6.55
2022-11-14T20:53:25.214Z,6.58
2022-11-14T20:56:11.599Z,6.59
2022-11-14T20:59:03.634Z,6.59
2022-11-14T21:01:57.667Z,6.59
2022-11-14T21:04:50.091Z,6.55
2022-11-14T21:07:35.180Z,6.48
2022-11-14T21:10:35.851Z,6.45
2022-11-14T21:13:34.435Z,6.37
2022-11-14T21:16:25.336Z,6.31
2022-11-14T21:19:08.372Z,6.20
2022-11-14T21:21:49.721Z,6.13
2022-11-14T21:24:38.376Z,6.09
2022-11-14T21:27:15.784Z,6.07
2022-11-14T21:29:54.742Z,6.11
2022-11-14T21:32:36.374Z,6.03
2022-11-14T21:35:24.359Z,6.00
2022-11-14T21:38:07.514Z,5.94
2022-11-14T21:40:48.308Z,5.98
2022-11-14T21:43:34.239Z,5.96
2022-11-14T21:46:06.977Z,5.93
2022-11-14T21:48:44.413Z,5.86
2022-11-14T21:51:19.134Z,5.85
2022-11-14T21:54:01.117Z,5.87
2022-11-14T21:56:41.639Z,6.00
2022-11-14T21:59:34.374Z,6.03
2022-11-14T22:02:32.118Z,6.05
2022-11-14T22:05:03.092Z,6.01
2022-11-14T22:07:44.117Z,6.07
2022-11-14T22:10:22.627Z,6.11
2022-11-14T22:13:07.087Z,6.08
2022-11-14T22:15:53.858Z,6.15
2022-11-14T22:18:37.622Z,6.19
2022-11-14T22:21:10.716Z,6.24
2022-11-14T22:23:39.178Z,6.20
2022-11-14T22:26:08.868Z,6.20
2022-11-14T22:28:37.008Z,6.24
2022-11-14T22:31:08.423Z,6.30
2022-11-14T22:33:41.510Z,6.35
2022-11-14T22:36:15.798Z,6.37
2022-11-14T22:38:44.938Z,6.29
2022-11-14T22:41:16.642Z,6.28
2022-11-14T22:43:45.107Z,6.29
2022-11-14T22:46:14.811Z,6.34
2022-11-14T22:48:44.521Z,6.33
2022-11-14T22:51:14.382Z,6.35
2022-11-14T22:53:42.950Z,6.43
2022-11-14T22:56:14.830Z,6.43
2022-11-14T22:58:45.043Z,6.40
2022-11-14T23:01:14.119Z,6.44
2022-11-14T23:03:42.273Z,6.43
2022-11-14T23:06:11.821Z,6.39
2022-11-14T23:08:40.033Z,6.34
2022-11-14T23:11:10.760Z,6.38
2022-11-14T23:13:41.403Z,6.38
2022-11-14T23:16:10.710Z,6.36
2022-11-14T23:18:39.318Z,6.36
2022-11-14T23:21:09.011Z,6.41
2022-11-14T23:23:37.114Z,6.40
2022-11-14T23:26:05.699Z,6.50
2022-11-14T23:28:34.032Z,6.44
2022-11-14T23:31:03.696Z,6.51
2022-11-14T23:33:32.317Z,6.41
2022-11-14T23:36:00.591Z,6.43
2022-11-14T23:38:30.608Z,6.36
2022-11-14T23:41:00.729Z,6.32
2022-11-14T23:43:30.419Z,6.33
2022-11-14T23:45:59.041Z,6.38
2022-11-14T23:48:28.514Z,6.35
2022-11-14T23:50:57.677Z,6.37
2022-11-14T23:53:25.805Z,6.45
2022-11-14T23:55:54.442Z,6.44
2022-11-14T23:58:23.490Z,6.45
